Estación de Puchuncaví

Ultimos registro cada 15 minutos 64
Estación Fecha / Hora Temperatura Humedad Lluvia Velocidad Dirección Radiación Presion
64 Puchuncaví 04-09-2026 15:45 19,1 71,4 0 2,5 223 493,1 1016,4
63 Puchuncaví 04-09-2026 15:30 19,5 69,5 0 2,5 220 526,9 1016,4
62 Puchuncaví 04-09-2026 15:15 19,7 69,1 0 2 219 565,6 1016,4
61 Puchuncaví 04-09-2026 15:00 19,3 68,8 0 2,5 209 600,6 1016,4
60 Puchuncaví 04-09-2026 14:45 19,1 69,1 0 3 198 624,4 1016,4
59 Puchuncaví 04-09-2026 14:30 19,5 69,1 0 2,5 209 653,1 1016,5
58 Puchuncaví 04-09-2026 14:15 20,1 66,3 0 2,5 209 676,9 1016,7
57 Puchuncaví 04-09-2026 14:00 19,8 66,4 0 2,5 222 698,1 1016,6
56 Puchuncaví 04-09-2026 13:45 19,8 67,2 0 2,5 232 715,6 1016,9
55 Puchuncaví 04-09-2026 13:30 19,6 65,5 0 2 220 719,4 1017
54 Puchuncaví 04-09-2026 13:15 19,8 67,3 0 2 230 726,9 1017,2
53 Puchuncaví 04-09-2026 13:00 19,4 67,3 0 2 208 729,4 1017,5
52 Puchuncaví 04-09-2026 12:45 19,1 70,3 0 1,5 248 726,9 1017,9
51 Puchuncaví 04-09-2026 12:30 19,4 69,4 0 1,5 236 723,1 1018
50 Puchuncaví 04-09-2026 12:15 18,9 70,2 0 1,5 244 716,9 1018,3
49 Puchuncaví 04-09-2026 12:00 18,8 69 0 1 239 704,4 1018,3
48 Puchuncaví 04-09-2026 11:45 18,6 69,8 0 1 212 694,4 1018,6
47 Puchuncaví 04-09-2026 11:30 18,9 71,8 0 1 216 675,6 1019
46 Puchuncaví 04-09-2026 11:15 18,6 72,1 0 1 234 651,9 1019,4
45 Puchuncaví 04-09-2026 11:00 18,2 75,4 0 0 178 623,1 1019,6
44 Puchuncaví 04-09-2026 10:45 17,5 78 0 0,5 206 595,6 1019,9
43 Puchuncaví 04-09-2026 10:30 16,9 80,2 0 0,5 195 564,4 1020,3
42 Puchuncaví 04-09-2026 10:15 16,2 82 0 0,5 184 529,4 1020,3
41 Puchuncaví 04-09-2026 10:00 15,5 85,9 0 0 194 493,1 1020,6
40 Puchuncaví 04-09-2026 09:45 15 91,5 0 0 188 453,1 1020,9
39 Puchuncaví 04-09-2026 09:30 14,3 95,5 0 0 239 408,1 1020,8
38 Puchuncaví 04-09-2026 09:15 13,6 97,4 0 0 281 364,4 1021
37 Puchuncaví 04-09-2026 09:00 12 98,4 0 0 14 316,9 1020,9
36 Puchuncaví 04-09-2026 08:45 10,1 99,2 0 0 14 273,1 1021,1
35 Puchuncaví 04-09-2026 08:30 8,6 99,3 0 0 14 221,9 1021,2
34 Puchuncaví 04-09-2026 08:15 7,6 100 0 0 14 178,1 1021,2
33 Puchuncaví 04-09-2026 08:00 5,5 100 0 0 15 136,9 1021,1
32 Puchuncaví 04-09-2026 07:45 4,7 100 0 0 15 94,4 1021,1
31 Puchuncaví 04-09-2026 07:30 3,7 100 0 0 15 43,1 1021
30 Puchuncaví 04-09-2026 07:15 3,2 100 0 0 15 8,1 1020,9
29 Puchuncaví 04-09-2026 07:00 3,2 100 0 0 14 1,9 1020,9
28 Puchuncaví 04-09-2026 06:45 3,1 100 0 0 14 0,6 1020,9
27 Puchuncaví 04-09-2026 06:30 3,4 100 0 0 14 0,6 1020,9
26 Puchuncaví 04-09-2026 06:15 3,5 100 0 0 14 0,6 1020,9
25 Puchuncaví 04-09-2026 06:00 3,5 99,9 0 0 14 0,6 1020,8
24 Puchuncaví 04-09-2026 05:45 3,6 99,8 0 0 14 0,6 1020,8
23 Puchuncaví 04-09-2026 05:30 3,7 99,9 0 0 14 0,6 1020,6
22 Puchuncaví 04-09-2026 05:15 3,9 99,7 0 0 14 0,6 1020,8
21 Puchuncaví 04-09-2026 05:00 4,1 99,7 0 0 14 0,6 1020,9
20 Puchuncaví 04-09-2026 04:45 4,2 99,6 0 0 14 0,6 1020,9
19 Puchuncaví 04-09-2026 04:30 4,4 99,4 0 0 14 0,6 1020,7
18 Puchuncaví 04-09-2026 04:15 4,5 99,2 0 0 13 0,6 1020,7
17 Puchuncaví 04-09-2026 04:00 4,4 99,2 0 0 8 0,6 1020,9
16 Puchuncaví 04-09-2026 03:45 4,6 99,3 0 0 8 0,6 1021
15 Puchuncaví 04-09-2026 03:30 4,7 99,1 0 0 8 0,6 1021
14 Puchuncaví 04-09-2026 03:15 4,8 99 0 0 8 0,6 1021,1
13 Puchuncaví 04-09-2026 03:00 5 99 0 0 8 0,6 1021,3
12 Puchuncaví 04-09-2026 02:45 5,2 98,9 0 0 8 0,6 1021,4
11 Puchuncaví 04-09-2026 02:30 5,2 98,7 0 0 8 0,6 1021,5
10 Puchuncaví 04-09-2026 02:15 5,5 98,6 0 0 8 0,6 1021,5
9 Puchuncaví 04-09-2026 02:00 5,6 98,5 0 0 8 0,6 1021,7
8 Puchuncaví 04-09-2026 01:45 5,7 98,3 0 0 8 0,6 1021,6
7 Puchuncaví 04-09-2026 01:30 5,8 98,2 0 0 8 0,6 1021,6
6 Puchuncaví 04-09-2026 01:15 5,9 98,1 0 0 8 0,6 1021,8
5 Puchuncaví 04-09-2026 01:00 6,2 97,8 0 0 7 0,6 1022,1
4 Puchuncaví 04-09-2026 00:45 6,4 97,8 0 0 7 0,6 1021,9
3 Puchuncaví 04-09-2026 00:30 6,5 97,7 0 0 7 0,6 1022,1
2 Puchuncaví 04-09-2026 00:15 6,8 97,5 0 0 7 0,6 1022,2
1 Puchuncaví 04-09-2026 00:00 6,8 97,1 0 0 7 0,6 1022,2